createdAt,value
2017-01-26T00:00:03.028Z,283
2017-01-26T00:01:03.100Z,282
2017-01-26T00:02:03.183Z,283
2017-01-26T00:03:03.316Z,283
2017-01-26T00:04:03.436Z,282
2017-01-26T00:05:03.536Z,283
2017-01-26T00:06:03.605Z,283
2017-01-26T00:07:03.720Z,283
2017-01-26T00:08:03.844Z,283
2017-01-26T00:09:03.958Z,283
2017-01-26T00:10:04.197Z,282
2017-01-26T00:11:04.268Z,283
2017-01-26T00:12:04.415Z,283
2017-01-26T00:13:04.559Z,283
2017-01-26T00:14:04.673Z,282
2017-01-26T00:15:04.773Z,283
2017-01-26T00:16:04.867Z,283
2017-01-26T00:17:04.966Z,283
2017-01-26T00:18:05.106Z,283
2017-01-26T00:19:05.218Z,283
2017-01-26T00:20:05.334Z,283
2017-01-26T00:21:05.423Z,283
2017-01-26T00:22:05.540Z,283
2017-01-26T00:23:05.646Z,283
2017-01-26T00:24:05.753Z,283
2017-01-26T00:25:05.864Z,283
2017-01-26T00:26:05.980Z,283
2017-01-26T00:27:06.093Z,283
2017-01-26T00:28:06.199Z,283
2017-01-26T00:29:06.369Z,283
2017-01-26T00:30:06.431Z,283
2017-01-26T00:31:06.545Z,283
2017-01-26T00:32:06.633Z,284
2017-01-26T00:33:06.805Z,283
2017-01-26T00:34:06.879Z,284
2017-01-26T00:35:06.991Z,284
2017-01-26T00:36:07.086Z,283
2017-01-26T00:37:07.200Z,282
2017-01-26T00:38:07.316Z,282
2017-01-26T00:39:07.436Z,282
2017-01-26T00:40:07.553Z,282
2017-01-26T00:41:07.659Z,282
2017-01-26T00:42:07.772Z,282
2017-01-26T00:43:07.884Z,282
2017-01-26T00:44:07.958Z,282
2017-01-26T00:45:08.046Z,282
2017-01-26T00:46:08.136Z,282
2017-01-26T00:47:08.238Z,282
2017-01-26T00:48:08.355Z,281
2017-01-26T00:49:08.474Z,282
2017-01-26T00:50:08.573Z,282
2017-01-26T00:51:08.652Z,281
2017-01-26T00:52:08.769Z,281
2017-01-26T00:53:09.408Z,282
2017-01-26T00:54:08.988Z,282
2017-01-26T00:55:09.166Z,282
2017-01-26T00:56:09.308Z,282
2017-01-26T00:57:09.362Z,281
2017-01-26T00:58:09.436Z,282
2017-01-26T00:59:09.611Z,282
2017-01-26T01:00:09.674Z,282
2017-01-26T01:01:09.778Z,281
2017-01-26T01:02:09.896Z,282
2017-01-26T01:03:10.031Z,282
2017-01-26T01:04:10.250Z,282
2017-01-26T01:05:10.363Z,282
2017-01-26T01:06:11.410Z,282
2017-01-26T01:07:10.683Z,282
2017-01-26T01:08:10.780Z,282
2017-01-26T01:09:10.874Z,282
2017-01-26T01:10:11.001Z,282
2017-01-26T01:11:11.146Z,282
2017-01-26T01:12:11.245Z,282
2017-01-26T01:13:11.353Z,282
2017-01-26T01:14:11.470Z,282
2017-01-26T01:15:11.597Z,282
2017-01-26T01:16:11.708Z,282
2017-01-26T01:17:11.817Z,282
2017-01-26T01:18:11.965Z,282
2017-01-26T01:19:12.070Z,282
2017-01-26T01:20:12.153Z,282
2017-01-26T01:21:12.252Z,282
2017-01-26T01:22:12.350Z,282
2017-01-26T01:23:12.493Z,282
2017-01-26T01:24:12.606Z,281
2017-01-26T01:25:12.835Z,282
2017-01-26T01:26:12.998Z,281
2017-01-26T01:27:13.069Z,282
2017-01-26T01:28:13.146Z,281
2017-01-26T01:29:13.286Z,282
2017-01-26T01:30:13.403Z,281
2017-01-26T01:31:13.583Z,282
2017-01-26T01:32:14.413Z,282
2017-01-26T01:33:13.855Z,281
2017-01-26T01:34:13.972Z,281
2017-01-26T01:35:14.057Z,281
2017-01-26T01:36:14.196Z,281
2017-01-26T01:37:14.330Z,281
2017-01-26T01:38:14.433Z,282
2017-01-26T01:39:14.569Z,281
2017-01-26T01:40:14.685Z,281
2017-01-26T01:41:14.778Z,281
2017-01-26T01:42:14.917Z,282
2017-01-26T01:43:14.988Z,281
2017-01-26T01:44:15.092Z,281
2017-01-26T01:45:15.200Z,281
2017-01-26T01:46:15.303Z,281
2017-01-26T01:47:15.393Z,281
2017-01-26T01:48:15.565Z,281
2017-01-26T01:49:15.640Z,281
2017-01-26T01:50:15.703Z,281
2017-01-26T01:51:15.766Z,281
2017-01-26T01:52:15.892Z,281
2017-01-26T01:53:16.002Z,281
2017-01-26T01:54:16.149Z,282
2017-01-26T01:55:16.243Z,281
2017-01-26T01:56:16.348Z,281
2017-01-26T01:57:16.584Z,281
2017-01-26T01:58:16.683Z,281
2017-01-26T01:59:16.817Z,281
2017-01-26T02:00:16.988Z,281
2017-01-26T02:01:17.093Z,281
2017-01-26T02:02:17.205Z,282
2017-01-26T02:03:17.321Z,281
2017-01-26T02:04:17.448Z,281
2017-01-26T02:05:17.609Z,281
2017-01-26T02:06:17.788Z,281
2017-01-26T02:07:17.906Z,281
2017-01-26T02:08:18.008Z,281
2017-01-26T02:09:18.124Z,281
2017-01-26T02:10:18.238Z,281
2017-01-26T02:11:18.332Z,281
2017-01-26T02:12:18.429Z,281
2017-01-26T02:13:18.538Z,281
2017-01-26T02:14:18.616Z,281
2017-01-26T02:15:18.822Z,281
2017-01-26T02:16:18.893Z,281
2017-01-26T02:17:19.009Z,281
2017-01-26T02:18:19.098Z,282
2017-01-26T02:19:19.918Z,281
2017-01-26T02:20:19.321Z,281
2017-01-26T02:21:19.453Z,281
2017-01-26T02:22:19.559Z,281
2017-01-26T02:23:19.663Z,282
2017-01-26T02:24:19.792Z,281
2017-01-26T02:25:19.873Z,282
2017-01-26T02:26:19.991Z,281
2017-01-26T02:27:20.098Z,281
2017-01-26T02:28:20.303Z,281
2017-01-26T02:29:20.519Z,281
2017-01-26T02:30:20.589Z,281
2017-01-26T02:31:20.659Z,281
2017-01-26T02:32:20.816Z,281
2017-01-26T02:33:20.945Z,281
2017-01-26T02:34:21.046Z,281
2017-01-26T02:35:21.122Z,281
2017-01-26T02:36:21.198Z,281
2017-01-26T02:37:21.309Z,281
2017-01-26T02:38:21.398Z,281
2017-01-26T02:39:21.471Z,281
2017-01-26T02:40:21.642Z,281
2017-01-26T02:41:21.713Z,282
2017-01-26T02:42:21.838Z,281
2017-01-26T02:43:21.939Z,281
2017-01-26T02:44:22.058Z,281
2017-01-26T02:45:22.137Z,282
2017-01-26T02:46:22.218Z,282
2017-01-26T02:47:22.318Z,281
2017-01-26T02:48:22.429Z,281
2017-01-26T02:49:22.543Z,281
2017-01-26T02:50:22.701Z,281
2017-01-26T02:51:22.770Z,281
2017-01-26T02:52:22.953Z,281
2017-01-26T02:53:23.031Z,282
2017-01-26T02:54:23.139Z,281
2017-01-26T02:55:23.224Z,281
2017-01-26T02:56:23.287Z,282
2017-01-26T02:57:23.454Z,281
2017-01-26T02:58:23.578Z,281
2017-01-26T02:59:23.682Z,281
2017-01-26T03:00:23.742Z,282
2017-01-26T03:01:23.836Z,281
2017-01-26T03:02:23.993Z,281
2017-01-26T03:03:24.124Z,281
2017-01-26T03:04:24.264Z,281
2017-01-26T03:05:24.407Z,281
2017-01-26T03:06:24.478Z,281
2017-01-26T03:07:25.428Z,282
2017-01-26T03:08:24.849Z,281
2017-01-26T03:09:24.981Z,281
2017-01-26T03:10:25.108Z,281
2017-01-26T03:11:25.191Z,282
2017-01-26T03:12:25.256Z,281
2017-01-26T03:13:26.424Z,281
2017-01-26T03:14:25.477Z,281
2017-01-26T03:15:25.579Z,281
2017-01-26T03:16:26.426Z,281
2017-01-26T03:17:25.776Z,281
2017-01-26T03:18:25.913Z,281
2017-01-26T03:19:26.927Z,281
2017-01-26T03:20:26.193Z,281
2017-01-26T03:21:26.305Z,282
2017-01-26T03:22:26.374Z,281
2017-01-26T03:23:26.518Z,281
2017-01-26T03:24:26.612Z,282
2017-01-26T03:25:26.696Z,281
2017-01-26T03:26:26.914Z,282
2017-01-26T03:27:27.064Z,281
2017-01-26T03:28:27.147Z,281
2017-01-26T03:29:27.208Z,281
2017-01-26T03:30:27.273Z,281
2017-01-26T03:31:27.358Z,281
2017-01-26T03:32:27.458Z,281
2017-01-26T03:33:27.599Z,281
2017-01-26T03:34:27.795Z,281
2017-01-26T03:35:27.892Z,281
2017-01-26T03:36:27.959Z,281
2017-01-26T03:37:28.137Z,282
2017-01-26T03:38:28.256Z,282
2017-01-26T03:39:28.349Z,282
2017-01-26T03:40:28.430Z,281
2017-01-26T03:41:28.537Z,281
2017-01-26T03:42:28.614Z,281
2017-01-26T03:43:28.675Z,281
2017-01-26T03:44:28.847Z,281
2017-01-26T03:45:28.970Z,281
2017-01-26T03:46:29.042Z,282
2017-01-26T03:47:29.196Z,281
2017-01-26T03:48:29.277Z,281
2017-01-26T03:49:29.370Z,281
2017-01-26T03:50:29.446Z,281
2017-01-26T03:51:29.562Z,281
2017-01-26T03:52:29.638Z,282
2017-01-26T03:53:29.728Z,281
2017-01-26T03:54:29.815Z,281
2017-01-26T03:55:29.879Z,281
2017-01-26T03:56:29.993Z,281
2017-01-26T03:57:30.089Z,281
2017-01-26T03:58:30.230Z,281
2017-01-26T03:59:30.431Z,281
2017-01-26T04:00:30.550Z,281
2017-01-26T04:01:30.643Z,281
2017-01-26T04:02:30.745Z,282
2017-01-26T04:03:30.825Z,281
2017-01-26T04:04:30.987Z,281
2017-01-26T04:05:31.095Z,281
2017-01-26T04:06:31.201Z,281
2017-01-26T04:07:31.338Z,281
2017-01-26T04:08:31.395Z,282
2017-01-26T04:09:31.525Z,281
2017-01-26T04:10:31.640Z,281
2017-01-26T04:11:31.739Z,281
2017-01-26T04:12:31.816Z,281
2017-01-26T04:13:32.014Z,282
2017-01-26T04:14:32.129Z,281
2017-01-26T04:15:32.272Z,281
2017-01-26T04:16:32.391Z,281
2017-01-26T04:17:32.494Z,281
2017-01-26T04:18:32.615Z,281
2017-01-26T04:19:32.754Z,281
2017-01-26T04:20:32.827Z,282
2017-01-26T04:21:32.911Z,282
2017-01-26T04:22:33.040Z,282
2017-01-26T04:23:33.123Z,281
2017-01-26T04:24:33.188Z,281
2017-01-26T04:25:33.312Z,281
2017-01-26T04:26:33.415Z,282
2017-01-26T04:27:33.515Z,282
2017-01-26T04:28:33.632Z,281
2017-01-26T04:29:33.757Z,281
2017-01-26T04:30:33.864Z,281
2017-01-26T04:31:33.937Z,281
2017-01-26T04:32:34.034Z,282
2017-01-26T04:33:34.120Z,281
2017-01-26T04:34:34.320Z,282
2017-01-26T04:35:34.445Z,282
2017-01-26T04:36:34.660Z,281
2017-01-26T04:37:34.743Z,281
2017-01-26T04:38:34.839Z,282
2017-01-26T04:39:34.983Z,281
2017-01-26T04:40:35.085Z,281
2017-01-26T04:41:35.194Z,281
2017-01-26T04:42:35.287Z,282
2017-01-26T04:43:35.383Z,281
2017-01-26T04:44:35.548Z,281
2017-01-26T04:45:35.625Z,281
2017-01-26T04:46:35.736Z,281
2017-01-26T04:47:35.988Z,281
2017-01-26T04:48:36.064Z,281
2017-01-26T04:49:36.208Z,281
2017-01-26T04:50:36.311Z,281
2017-01-26T04:51:36.452Z,281
2017-01-26T04:52:36.671Z,281
2017-01-26T04:53:36.810Z,281
2017-01-26T04:54:36.952Z,281
2017-01-26T04:55:37.051Z,281
2017-01-26T04:56:37.170Z,281
2017-01-26T04:57:37.290Z,281
2017-01-26T04:58:37.409Z,281
2017-01-26T04:59:37.504Z,281
2017-01-26T05:00:37.581Z,281
2017-01-26T05:01:37.692Z,281
2017-01-26T05:02:37.814Z,281
2017-01-26T05:03:37.959Z,281
2017-01-26T05:04:38.110Z,281
2017-01-26T05:05:38.266Z,282
2017-01-26T05:06:38.442Z,281
2017-01-26T05:07:38.535Z,281
2017-01-26T05:08:39.440Z,281
2017-01-26T05:09:38.770Z,281
2017-01-26T05:10:38.835Z,281
2017-01-26T05:11:38.935Z,281
2017-01-26T05:12:39.015Z,281
2017-01-26T05:13:39.120Z,281
2017-01-26T05:14:39.216Z,281
2017-01-26T05:15:39.335Z,281
2017-01-26T05:16:39.462Z,281
2017-01-26T05:17:39.626Z,281
2017-01-26T05:18:39.753Z,281
2017-01-26T05:19:39.867Z,281
2017-01-26T05:20:39.960Z,281
2017-01-26T05:21:40.115Z,281
2017-01-26T05:22:40.213Z,281
2017-01-26T05:23:40.328Z,282
2017-01-26T05:24:40.511Z,281
2017-01-26T05:25:40.616Z,281
2017-01-26T05:26:40.724Z,281
2017-01-26T05:27:40.848Z,282
2017-01-26T05:28:40.940Z,281
2017-01-26T05:29:41.057Z,281
2017-01-26T05:30:41.125Z,281
2017-01-26T05:31:41.273Z,281
2017-01-26T05:32:41.400Z,281
2017-01-26T05:33:41.508Z,281
2017-01-26T05:34:41.594Z,282
2017-01-26T05:35:41.668Z,281
2017-01-26T05:36:41.799Z,281
2017-01-26T05:37:41.892Z,281
2017-01-26T05:38:41.976Z,282
2017-01-26T05:39:42.200Z,281
2017-01-26T05:40:42.287Z,281
2017-01-26T05:41:42.398Z,281
2017-01-26T05:42:42.494Z,281
2017-01-26T05:43:42.636Z,281
2017-01-26T05:44:42.756Z,281
2017-01-26T05:45:42.844Z,281
2017-01-26T05:46:42.906Z,281
2017-01-26T05:47:43.044Z,282
2017-01-26T05:48:43.131Z,282
2017-01-26T05:49:43.245Z,281
2017-01-26T05:50:43.318Z,282
2017-01-26T05:51:43.390Z,281
2017-01-26T05:52:43.470Z,281
2017-01-26T05:53:43.603Z,281
2017-01-26T05:54:43.806Z,282
2017-01-26T05:55:43.874Z,281
2017-01-26T05:56:43.939Z,281
2017-01-26T05:57:44.076Z,282
2017-01-26T05:58:44.182Z,281
2017-01-26T05:59:44.331Z,281
2017-01-26T06:00:44.409Z,281
2017-01-26T06:01:44.530Z,281
2017-01-26T06:02:44.689Z,281
2017-01-26T06:03:44.778Z,281
2017-01-26T06:04:44.905Z,281
2017-01-26T06:05:44.987Z,281
2017-01-26T06:06:45.103Z,282
2017-01-26T06:07:45.252Z,282
2017-01-26T06:08:45.359Z,281
2017-01-26T06:09:45.443Z,281
2017-01-26T06:10:45.540Z,281
2017-01-26T06:11:45.638Z,281
2017-01-26T06:12:45.757Z,282
2017-01-26T06:13:45.917Z,281
2017-01-26T06:14:46.018Z,282
2017-01-26T06:15:46.084Z,282
2017-01-26T06:16:46.211Z,281
2017-01-26T06:17:46.312Z,281
2017-01-26T06:18:46.430Z,282
2017-01-26T06:19:46.500Z,281
2017-01-26T06:20:46.566Z,281
2017-01-26T06:21:46.680Z,282
2017-01-26T06:22:46.789Z,281
2017-01-26T06:23:46.890Z,282
2017-01-26T06:24:47.005Z,281
2017-01-26T06:25:47.171Z,282
2017-01-26T06:26:47.327Z,282
2017-01-26T06:27:47.416Z,281
2017-01-26T06:28:47.541Z,282
2017-01-26T06:29:47.673Z,281
2017-01-26T06:30:47.739Z,282
2017-01-26T06:31:47.903Z,282
2017-01-26T06:32:48.018Z,282
2017-01-26T06:33:48.131Z,281
2017-01-26T06:34:48.292Z,281
2017-01-26T06:35:48.366Z,281
2017-01-26T06:36:48.444Z,280
2017-01-26T06:37:48.541Z,281
2017-01-26T06:38:48.668Z,282
2017-01-26T06:39:48.727Z,281
2017-01-26T06:40:48.838Z,281
2017-01-26T06:41:48.956Z,281
2017-01-26T06:42:49.032Z,281
2017-01-26T06:43:49.168Z,281
2017-01-26T06:44:49.271Z,281
2017-01-26T06:45:49.407Z,282
2017-01-26T06:46:49.497Z,281
2017-01-26T06:47:49.612Z,281
2017-01-26T06:48:49.778Z,281
2017-01-26T06:49:49.880Z,282
2017-01-26T06:50:49.953Z,281
2017-01-26T06:51:50.111Z,281
2017-01-26T06:52:50.218Z,282
2017-01-26T06:53:50.276Z,282
2017-01-26T06:54:50.335Z,281
2017-01-26T06:55:50.442Z,282
2017-01-26T06:56:50.564Z,281
2017-01-26T06:57:51.475Z,281
2017-01-26T06:58:51.582Z,282
2017-01-26T06:59:51.682Z,282
2017-01-26T07:00:51.821Z,282
2017-01-26T07:01:51.929Z,281
2017-01-26T07:02:52.059Z,281
2017-01-26T07:03:52.179Z,281
2017-01-26T07:04:52.330Z,281
2017-01-26T07:05:52.461Z,281
2017-01-26T07:06:52.532Z,281
2017-01-26T07:07:52.691Z,282
2017-01-26T07:08:52.751Z,281
2017-01-26T07:09:52.888Z,281
2017-01-26T07:10:53.035Z,281
2017-01-26T07:11:53.134Z,281
2017-01-26T07:12:53.209Z,281
2017-01-26T07:13:53.330Z,281
2017-01-26T07:14:53.428Z,281
2017-01-26T07:15:53.586Z,281
2017-01-26T07:16:53.688Z,281
2017-01-26T07:17:53.811Z,281
2017-01-26T07:18:53.913Z,281
2017-01-26T07:19:54.025Z,281
2017-01-26T07:20:54.309Z,281
2017-01-26T07:21:54.411Z,281
2017-01-26T07:22:54.510Z,281
2017-01-26T07:23:54.578Z,281
2017-01-26T07:24:54.645Z,281
2017-01-26T07:25:54.919Z,281
2017-01-26T07:26:54.997Z,281
2017-01-26T07:27:55.173Z,282
2017-01-26T07:28:55.966Z,282
2017-01-26T07:29:55.358Z,282
2017-01-26T07:30:55.497Z,281
2017-01-26T07:31:55.594Z,281
2017-01-26T07:32:56.449Z,281
2017-01-26T07:33:55.810Z,281
2017-01-26T07:34:55.914Z,281
2017-01-26T07:35:56.110Z,281
2017-01-26T07:36:56.188Z,281
2017-01-26T07:37:56.285Z,281
2017-01-26T07:38:56.405Z,281
2017-01-26T07:39:56.500Z,281
2017-01-26T07:40:56.680Z,281
2017-01-26T07:41:56.775Z,281
2017-01-26T07:42:56.878Z,281
2017-01-26T07:43:57.019Z,282
2017-01-26T07:44:57.103Z,282
2017-01-26T07:45:57.293Z,282
2017-01-26T07:46:57.409Z,282
2017-01-26T07:47:57.585Z,282
2017-01-26T07:48:58.449Z,282
2017-01-26T07:49:57.756Z,283
2017-01-26T07:50:57.854Z,283
2017-01-26T07:51:57.965Z,283
2017-01-26T07:52:58.144Z,284
2017-01-26T07:53:58.231Z,284
2017-01-26T07:54:58.333Z,284
2017-01-26T07:55:58.480Z,284
2017-01-26T07:56:58.571Z,285
2017-01-26T07:57:58.742Z,285
2017-01-26T07:58:58.864Z,286
2017-01-26T07:59:59.002Z,287
2017-01-26T08:00:59.198Z,287
2017-01-26T08:01:59.333Z,291
2017-01-26T08:02:59.459Z,293
2017-01-26T08:03:59.639Z,293
2017-01-26T08:04:59.720Z,324
2017-01-26T08:05:59.875Z,427
2017-01-26T08:06:59.994Z,414
2017-01-26T08:08:00.077Z,405
2017-01-26T08:09:01.452Z,439
2017-01-26T08:10:00.394Z,476
2017-01-26T08:11:00.547Z,489
2017-01-26T08:12:00.722Z,470
2017-01-26T08:13:00.844Z,454
2017-01-26T08:14:00.947Z,437
2017-01-26T08:15:01.139Z,416
2017-01-26T08:16:01.274Z,403
2017-01-26T08:17:01.445Z,390
2017-01-26T08:18:01.564Z,381
2017-01-26T08:19:01.710Z,373
2017-01-26T08:20:01.873Z,361
2017-01-26T08:21:01.992Z,351
2017-01-26T08:22:02.132Z,334
2017-01-26T08:23:02.244Z,319
2017-01-26T08:24:02.326Z,295
2017-01-26T08:25:02.442Z,282
2017-01-26T08:26:02.566Z,281
2017-01-26T08:27:02.653Z,281
2017-01-26T08:28:02.799Z,281
2017-01-26T08:29:02.873Z,281
2017-01-26T08:30:03.057Z,281
2017-01-26T08:31:03.201Z,281
2017-01-26T08:32:03.336Z,281
2017-01-26T08:33:03.442Z,281
2017-01-26T08:34:03.575Z,281
2017-01-26T08:35:03.687Z,281
2017-01-26T08:36:03.751Z,281
2017-01-26T08:37:03.884Z,280
2017-01-26T08:38:03.965Z,281
2017-01-26T08:39:04.075Z,281
2017-01-26T08:40:04.144Z,280
2017-01-26T08:41:04.227Z,281
2017-01-26T08:42:04.355Z,281
2017-01-26T08:43:04.484Z,281
2017-01-26T08:44:04.698Z,281
2017-01-26T08:45:04.806Z,281
2017-01-26T08:46:04.933Z,281
2017-01-26T08:47:05.033Z,280
2017-01-26T08:48:05.183Z,281
2017-01-26T08:49:05.303Z,280
2017-01-26T08:50:05.393Z,281
2017-01-26T08:51:05.490Z,281
2017-01-26T08:52:05.600Z,280
2017-01-26T08:53:05.719Z,281
2017-01-26T08:54:05.813Z,281
2017-01-26T08:55:05.906Z,280
2017-01-26T08:56:05.974Z,281
2017-01-26T08:57:06.042Z,281
2017-01-26T08:58:06.138Z,281
2017-01-26T08:59:06.213Z,281
2017-01-26T09:00:06.375Z,281
2017-01-26T09:01:06.474Z,280
2017-01-26T09:02:06.612Z,281
2017-01-26T09:03:06.743Z,281
2017-01-26T09:04:06.892Z,281
2017-01-26T09:05:07.000Z,281
2017-01-26T09:06:07.088Z,281
2017-01-26T09:07:07.191Z,281
2017-01-26T09:08:07.285Z,281
2017-01-26T09:09:07.459Z,280
2017-01-26T09:10:07.520Z,281
2017-01-26T09:11:07.650Z,280
2017-01-26T09:12:07.769Z,281
2017-01-26T09:13:07.870Z,280
2017-01-26T09:14:08.004Z,280
2017-01-26T09:15:08.161Z,280
2017-01-26T09:16:08.265Z,281
2017-01-26T09:17:08.400Z,281
2017-01-26T09:18:08.507Z,281
2017-01-26T09:19:08.749Z,281
2017-01-26T09:20:08.912Z,280
2017-01-26T09:21:08.973Z,281
2017-01-26T09:22:09.093Z,281
2017-01-26T09:23:09.301Z,281
2017-01-26T09:24:09.411Z,281
2017-01-26T09:25:09.504Z,281
2017-01-26T09:26:09.655Z,281
2017-01-26T09:27:09.743Z,281
2017-01-26T09:28:09.865Z,280
2017-01-26T09:29:09.962Z,281
2017-01-26T09:30:10.051Z,281
2017-01-26T09:31:10.187Z,281
2017-01-26T09:32:10.311Z,280
2017-01-26T09:33:10.961Z,281
2017-01-26T09:34:10.572Z,281
2017-01-26T09:35:10.701Z,280
2017-01-26T09:36:10.787Z,280
2017-01-26T09:37:10.950Z,281
2017-01-26T09:38:11.067Z,281
2017-01-26T09:39:11.175Z,281
2017-01-26T09:40:11.310Z,281
2017-01-26T09:41:11.429Z,281
2017-01-26T09:42:11.514Z,281
2017-01-26T09:43:11.604Z,281
2017-01-26T09:44:12.461Z,280
2017-01-26T09:45:11.909Z,280
2017-01-26T09:46:11.991Z,280
2017-01-26T09:47:12.100Z,281
2017-01-26T09:48:12.172Z,281
2017-01-26T09:49:12.229Z,281
2017-01-26T09:50:12.309Z,281
2017-01-26T09:51:12.424Z,281
2017-01-26T09:52:12.521Z,281
2017-01-26T09:53:12.609Z,280
2017-01-26T09:54:12.732Z,281
2017-01-26T09:55:12.822Z,281
2017-01-26T09:56:12.941Z,281
2017-01-26T09:57:13.044Z,281
2017-01-26T09:58:13.145Z,280
2017-01-26T09:59:13.254Z,281
2017-01-26T10:00:13.361Z,281
2017-01-26T10:01:13.478Z,281
2017-01-26T10:02:13.567Z,281
2017-01-26T10:03:13.669Z,281
2017-01-26T10:04:13.765Z,281
2017-01-26T10:05:13.875Z,280
2017-01-26T10:06:14.003Z,280
2017-01-26T10:07:14.124Z,280
2017-01-26T10:08:14.190Z,280
2017-01-26T10:09:14.288Z,280
2017-01-26T10:10:14.402Z,280
2017-01-26T10:11:14.491Z,280
2017-01-26T10:12:14.586Z,279
2017-01-26T10:13:14.683Z,279
2017-01-26T10:14:14.778Z,279
2017-01-26T10:15:15.464Z,279
2017-01-26T10:16:15.058Z,279
2017-01-26T10:17:15.222Z,280
2017-01-26T10:18:15.397Z,279
2017-01-26T10:19:15.500Z,279
2017-01-26T10:20:15.591Z,279
2017-01-26T10:21:15.829Z,279
2017-01-26T10:22:15.877Z,279
2017-01-26T10:23:15.974Z,279
2017-01-26T10:24:16.155Z,279
2017-01-26T10:25:16.300Z,279
2017-01-26T10:26:16.435Z,279
2017-01-26T10:27:16.542Z,279
2017-01-26T10:28:16.637Z,279
2017-01-26T10:29:16.795Z,279
2017-01-26T10:30:16.898Z,279
2017-01-26T10:31:17.004Z,279
2017-01-26T10:32:17.174Z,279
2017-01-26T10:33:17.315Z,279
2017-01-26T10:34:17.455Z,280
2017-01-26T10:35:17.582Z,279
2017-01-26T10:36:17.689Z,279
2017-01-26T10:37:17.799Z,279
2017-01-26T10:38:17.948Z,279
2017-01-26T10:39:18.089Z,279
2017-01-26T10:40:18.210Z,279
2017-01-26T10:41:18.373Z,279
2017-01-26T10:42:18.513Z,279
2017-01-26T10:43:18.754Z,279
2017-01-26T10:44:18.888Z,279
2017-01-26T10:45:19.028Z,279
2017-01-26T10:46:19.173Z,279
2017-01-26T10:47:19.322Z,279
2017-01-26T10:48:19.414Z,279
2017-01-26T10:49:19.541Z,279
2017-01-26T10:50:19.638Z,279
2017-01-26T10:51:19.757Z,279
2017-01-26T10:52:19.853Z,279
2017-01-26T10:53:19.968Z,279
2017-01-26T10:54:20.073Z,279
2017-01-26T10:55:20.158Z,279
2017-01-26T10:56:20.309Z,279
2017-01-26T10:57:20.406Z,279
2017-01-26T10:58:20.524Z,279
2017-01-26T10:59:20.690Z,279
2017-01-26T11:00:20.808Z,278
2017-01-26T11:01:20.919Z,279
2017-01-26T11:02:21.088Z,279
2017-01-26T11:03:21.188Z,279
2017-01-26T11:04:21.297Z,280
2017-01-26T11:05:21.418Z,279
2017-01-26T11:06:21.531Z,279
2017-01-26T11:07:21.655Z,279
2017-01-26T11:08:21.804Z,279
2017-01-26T11:09:21.887Z,279
2017-01-26T11:10:22.014Z,279
2017-01-26T11:11:22.140Z,279
2017-01-26T11:12:22.247Z,279
2017-01-26T11:13:22.337Z,279
2017-01-26T11:14:22.429Z,279
2017-01-26T11:15:22.505Z,279
2017-01-26T11:16:22.606Z,279
2017-01-26T11:17:22.819Z,279
2017-01-26T11:18:22.915Z,279
2017-01-26T11:19:23.030Z,279
2017-01-26T11:20:23.119Z,279
2017-01-26T11:21:23.198Z,279
2017-01-26T11:22:23.327Z,280
2017-01-26T11:23:23.409Z,279
2017-01-26T11:24:23.524Z,279
2017-01-26T11:25:23.635Z,279
2017-01-26T11:26:23.768Z,279
2017-01-26T11:27:23.899Z,279
2017-01-26T11:28:24.010Z,279
2017-01-26T11:29:24.129Z,279
2017-01-26T11:30:24.230Z,279
2017-01-26T11:31:24.311Z,279
2017-01-26T11:32:24.422Z,279
2017-01-26T11:33:24.535Z,279
2017-01-26T11:34:24.663Z,279
2017-01-26T11:35:24.739Z,279
2017-01-26T11:36:24.860Z,279
2017-01-26T11:37:24.972Z,279
2017-01-26T11:38:25.231Z,279
2017-01-26T11:39:25.393Z,279
2017-01-26T11:40:25.581Z,279
2017-01-26T11:41:25.693Z,279
2017-01-26T11:42:25.822Z,279
2017-01-26T11:43:25.975Z,279
2017-01-26T11:44:26.144Z,279
2017-01-26T11:45:26.239Z,279
2017-01-26T11:46:26.326Z,279
2017-01-26T11:47:26.445Z,279
2017-01-26T11:48:26.552Z,279
2017-01-26T11:49:26.752Z,279
2017-01-26T11:50:26.930Z,279
2017-01-26T11:51:27.013Z,279
2017-01-26T11:52:27.215Z,279
2017-01-26T11:53:27.355Z,279
2017-01-26T11:54:27.486Z,279
2017-01-26T11:55:27.592Z,279
2017-01-26T11:56:27.767Z,279
2017-01-26T11:57:27.885Z,279
2017-01-26T11:58:28.016Z,279
2017-01-26T11:59:28.130Z,279
2017-01-26T12:00:28.202Z,279
2017-01-26T12:01:28.345Z,280
2017-01-26T12:02:28.492Z,279
2017-01-26T12:03:28.591Z,279
2017-01-26T12:04:28.680Z,279
2017-01-26T12:05:28.807Z,279
2017-01-26T12:06:28.884Z,279
2017-01-26T12:07:29.054Z,279
2017-01-26T12:08:29.240Z,279
2017-01-26T12:09:29.385Z,279
2017-01-26T12:10:29.458Z,279
2017-01-26T12:11:29.610Z,279
2017-01-26T12:12:29.713Z,279
2017-01-26T12:13:30.079Z,279
2017-01-26T12:14:30.181Z,279
2017-01-26T12:15:30.256Z,279
2017-01-26T12:16:30.338Z,279
2017-01-26T12:17:30.472Z,279
2017-01-26T12:18:30.591Z,279
2017-01-26T12:19:30.741Z,279
2017-01-26T12:20:30.896Z,279
2017-01-26T12:21:30.990Z,279
2017-01-26T12:22:31.179Z,279
2017-01-26T12:23:31.305Z,279
2017-01-26T12:24:31.422Z,279
2017-01-26T12:25:31.592Z,279
2017-01-26T12:26:31.713Z,279
2017-01-26T12:27:31.806Z,279
2017-01-26T12:28:31.931Z,279
2017-01-26T12:29:32.006Z,279
2017-01-26T12:30:32.075Z,279
2017-01-26T12:31:32.168Z,279
2017-01-26T12:32:32.267Z,279
2017-01-26T12:33:32.355Z,279
2017-01-26T12:34:32.563Z,279
2017-01-26T12:35:32.690Z,279
2017-01-26T12:36:32.820Z,279
2017-01-26T12:37:32.916Z,278
2017-01-26T12:38:33.010Z,279
2017-01-26T12:39:33.134Z,279
2017-01-26T12:40:33.262Z,279
2017-01-26T12:41:33.409Z,279
2017-01-26T12:42:33.557Z,279
2017-01-26T12:43:33.659Z,279
2017-01-26T12:44:33.735Z,279
2017-01-26T12:45:33.854Z,278
2017-01-26T12:46:33.959Z,279
2017-01-26T12:47:34.071Z,279
2017-01-26T12:48:34.275Z,279
2017-01-26T12:49:34.410Z,279
2017-01-26T12:50:34.496Z,279
2017-01-26T12:51:34.785Z,279
2017-01-26T12:52:34.916Z,279
2017-01-26T12:53:35.062Z,278
2017-01-26T12:54:35.224Z,279
2017-01-26T12:55:35.367Z,279
2017-01-26T12:56:35.488Z,279
2017-01-26T12:57:35.602Z,279
2017-01-26T12:58:35.754Z,278
2017-01-26T12:59:35.830Z,279
2017-01-26T13:00:35.962Z,279
2017-01-26T13:01:36.055Z,279
2017-01-26T13:02:36.175Z,279
2017-01-26T13:03:36.304Z,280
2017-01-26T13:04:36.415Z,279
2017-01-26T13:05:36.641Z,279
2017-01-26T13:06:36.743Z,279
2017-01-26T13:07:36.854Z,279
2017-01-26T13:08:37.041Z,280
2017-01-26T13:09:37.226Z,279
2017-01-26T13:10:37.313Z,244
2017-01-26T13:11:37.446Z,269
2017-01-26T13:12:37.622Z,268
2017-01-26T13:13:37.699Z,270
2017-01-26T13:14:37.851Z,270
2017-01-26T13:15:37.931Z,271
2017-01-26T13:16:38.076Z,270
2017-01-26T13:17:38.223Z,270
2017-01-26T13:18:38.337Z,270
2017-01-26T13:19:38.440Z,270
2017-01-26T13:20:38.567Z,271
2017-01-26T13:21:38.727Z,271
2017-01-26T13:22:38.805Z,271
2017-01-26T13:23:38.921Z,270
2017-01-26T13:24:39.062Z,270
2017-01-26T13:25:39.172Z,271
2017-01-26T13:28:05.962Z,271
2017-01-26T13:29:06.034Z,271
2017-01-26T13:30:06.143Z,271
2017-01-26T13:31:06.233Z,271
2017-01-26T13:32:06.477Z,271
2017-01-26T13:33:06.587Z,271
2017-01-26T13:34:06.683Z,271
2017-01-26T13:35:06.800Z,271
2017-01-26T13:36:06.876Z,271
2017-01-26T13:37:07.036Z,271
2017-01-26T13:38:07.133Z,271
2017-01-26T13:39:07.349Z,270
2017-01-26T13:40:07.518Z,270
2017-01-26T13:41:07.597Z,271
2017-01-26T13:42:07.717Z,271
2017-01-26T13:43:07.857Z,271
2017-01-26T13:44:08.005Z,271
2017-01-26T13:45:08.112Z,271
2017-01-26T13:46:08.269Z,271
2017-01-26T13:47:08.368Z,270
2017-01-26T13:48:08.514Z,268
2017-01-26T13:49:08.617Z,269